Time;durP1;ratioP1;P1;durP2;ratioP2;P2;SDS_P1;SDS_P2;PMS_P1;PMS_P2;Temp;Humidity;BMP_temperature;BMP_pressure;BME280_temperature;BME280_humidity;BME280_pressure;Samples;Min_cycle;Max_cycle;Signal;HPM_P1;HPM_P2
2022/06/23 00:02:06;;;;;;;8.23;5.68;;;;;;;19.54;77.11;98207.72;4137575;28;20236;-60
2022/06/23 00:04:15;;;;;;;5.90;5.38;;;;;;;19.47;78.16;98200.94;4122823;28;20282;-61
2022/06/23 00:06:47;;;;;;;6.15;5.55;;;;;;;19.40;78.31;98200.56;4124251;28;20644;-60
2022/06/23 00:08:49;;;;;;;9.18;6.35;;;;;;;19.44;78.32;98193.25;4137874;28;20217;-60
2022/06/23 00:10:55;;;;;;;11.82;4.47;;;;;;;19.40;78.33;98200.56;4122911;28;20592;-60
2022/06/23 00:12:57;;;;;;;6.57;5.65;;;;;;;19.38;78.25;98205.63;4124676;28;20743;-60
2022/06/23 00:14:59;;;;;;;7.18;5.38;;;;;;;19.35;78.24;98203.47;4122755;28;20240;-60
2022/06/23 00:17:22;;;;;;;7.32;4.80;;;;;;;19.32;78.36;98193.81;4125363;28;20205;-61
2022/06/23 00:19:24;;;;;;;9.10;5.28;;;;;;;19.29;78.28;98193.63;4124394;28;20194;-60
2022/06/23 00:21:31;;;;;;;6.15;4.82;;;;;;;19.24;78.50;98197.34;4123933;28;20260;-60
2022/06/23 00:23:41;;;;;;;7.15;4.97;;;;;;;19.22;78.18;98194.06;4124821;28;20214;-61
2022/06/23 00:25:52;;;;;;;5.95;5.43;;;;;;;19.20;77.91;98201.06;4119689;28;20293;-60
2022/06/23 00:27:54;;;;;;;5.53;5.00;;;;;;;19.20;77.95;98198.28;4122710;28;20288;-60
2022/06/23 00:30:01;;;;;;;5.35;4.18;;;;;;;19.20;77.85;98195.50;4120551;28;20560;-61
2022/06/23 00:32:04;;;;;;;9.40;4.93;;;;;;;19.15;77.78;98203.91;4137446;28;20676;-60
2022/06/23 00:34:22;;;;;;;9.20;5.20;;;;;;;19.13;77.88;98195.09;4126148;28;20280;-60
2022/06/23 00:36:37;;;;;;;7.30;5.97;;;;;;;19.13;78.01;98189.53;4137459;28;20205;-60
2022/06/23 00:38:39;;;;;;;5.82;4.88;;;;;;;19.13;77.83;98197.84;4136971;28;20221;-61
2022/06/23 00:40:42;;;;;;;5.43;4.28;;;;;;;19.10;78.15;98196.53;4122086;28;20206;-60
2022/06/23 00:42:56;;;;;;;11.35;6.05;;;;;;;19.06;78.53;98195.50;4136913;28;20202;-61
2022/06/23 00:45:09;;;;;;;7.53;5.55;;;;;;;18.99;79.50;98183.22;4136110;28;20225;-60
2022/06/23 00:47:20;;;;;;;9.75;5.47;;;;;;;18.97;79.03;98179.94;4138756;28;21283;-60
2022/06/23 00:49:25;;;;;;;11.13;4.95;;;;;;;18.95;78.92;98173.88;4122283;28;20822;-60
2022/06/23 00:51:38;;;;;;;6.68;5.93;;;;;;;18.94;78.78;98177.78;4123363;28;20209;-60
2022/06/23 00:53:55;;;;;;;6.18;5.05;;;;;;;18.93;78.40;98178.91;4139298;28;20196;-60
2022/06/23 00:56:19;;;;;;;5.50;4.68;;;;;;;18.92;78.33;98182.81;4138012;28;20217;-60
2022/06/23 00:58:32;;;;;;;8.02;5.18;;;;;;;18.90;78.21;98179.50;4107071;28;20207;-60
2022/06/23 01:00:39;;;;;;;6.32;4.15;;;;;;;18.88;78.21;98181.78;4133258;28;20205;-60
2022/06/23 01:02:48;;;;;;;5.28;4.75;;;;;;;18.90;78.27;98173.97;4114590;28;20777;-60
2022/06/23 01:05:08;;;;;;;8.18;5.80;;;;;;;18.86;78.12;98184.06;4118515;28;20230;-60
2022/06/23 01:07:16;;;;;;;5.65;5.13;;;;;;;18.82;78.31;98194.13;4125191;28;20195;-60
2022/06/23 01:09:55;;;;;;;6.47;5.88;;;;;;;18.79;78.35;98183.66;4121493;28;20259;-60
2022/06/23 01:12:03;;;;;;;6.90;6.25;;;;;;;18.75;78.42;98194.56;4135781;28;20197;-60
2022/06/23 01:14:11;;;;;;;10.07;5.82;;;;;;;18.75;78.11;98190.94;4134244;28;20239;-60
2022/06/23 01:16:23;;;;;;;6.00;5.30;;;;;;;18.75;78.03;98199.28;4135764;28;20212;-61
2022/06/23 01:18:32;;;;;;;5.68;5.03;;;;;;;18.72;78.12;98194.34;4114650;28;20202;-60
2022/06/23 01:20:45;;;;;;;7.20;6.22;;;;;;;18.73;77.55;98190.44;4122768;28;20210;-60
2022/06/23 01:22:49;;;;;;;5.65;4.45;;;;;;;18.70;77.81;98202.16;4135577;28;20691;-60
2022/06/23 01:25:01;;;;;;;7.07;5.70;;;;;;;18.68;77.46;98199.72;4119474;28;20226;-60
2022/06/23 01:27:52;;;;;;;5.55;5.05;;;;;;;18.68;77.32;98199.72;4122263;28;20206;-60
2022/06/23 01:30:05;;;;;;;4.97;4.57;;;;;;;18.64;77.31;98203.41;4091565;28;20687;-60
2022/06/23 01:32:18;;;;;;;6.13;4.50;;;;;;;18.57;77.63;98206.59;4121335;28;20225;-60
2022/06/23 01:34:32;;;;;;;5.00;4.60;;;;;;;18.55;77.37;98202.47;4136573;28;20213;-60
2022/06/23 01:36:41;;;;;;;5.78;5.28;;;;;;;18.51;77.67;98210.59;4124623;28;20232;-60
2022/06/23 01:39:03;;;;;;;4.78;4.32;;;;;;;18.47;77.45;98203.19;4133805;28;20205;-60
2022/06/23 01:41:16;;;;;;;5.68;5.07;;;;;;;18.46;77.56;98207.91;4119996;28;20198;-60
2022/06/23 01:43:30;;;;;;;5.85;5.10;;;;;;;18.47;77.33;98203.19;4109449;28;20261;-60
2022/06/23 01:45:43;;;;;;;9.30;5.05;;;;;;;18.46;77.41;98207.09;4121410;28;20789;-60
2022/06/23 01:47:51;;;;;;;5.30;4.82;;;;;;;18.49;77.72;98212.03;4137781;28;20241;-60
2022/06/23 01:50:01;;;;;;;4.07;3.67;;;;;;;18.50;77.54;98216.44;4121841;28;20575;-60
2022/06/23 01:52:13;;;;;;;5.25;4.65;;;;;;;18.49;77.49;98220.34;4135921;28;20295;-62
2022/06/23 01:54:22;;;;;;;6.97;5.38;;;;;;;18.46;77.38;98215.41;4124535;28;20205;-61
2022/06/23 01:56:31;;;;;;;9.13;5.10;;;;;;;18.43;77.22;98218.78;4121622;28;20209;-61
2022/06/23 01:58:43;;;;;;;7.07;5.65;;;;;;;18.36;77.58;98219.22;4138865;28;20235;-60
2022/06/23 02:00:47;;;;;;;7.68;5.93;;;;;;;18.06;79.26;98213.41;4123073;28;20249;-60
2022/06/23 02:02:58;;;;;;;6.97;4.97;;;;;;;18.01;79.43;98221.81;4129856;28;20218;-60
2022/06/23 02:05:30;;;;;;;6.53;5.28;;;;;;;18.09;79.12;98218.31;4122851;28;20262;-60
2022/06/23 02:07:36;;;;;;;5.53;4.97;;;;;;;18.10;79.11;98217.19;4124769;28;20245;-60
2022/06/23 02:09:42;;;;;;;7.72;6.15;;;;;;;18.11;78.64;98222.44;4137555;28;20311;-60
2022/06/23 02:11:51;;;;;;;5.03;4.60;;;;;;;18.10;78.63;98220.78;4124315;28;20210;-60
2022/06/23 02:14:05;;;;;;;6.53;5.70;;;;;;;18.11;78.35;98221.63;4124509;28;20213;-60
2022/06/23 02:16:44;;;;;;;6.05;5.43;;;;;;;18.11;78.00;98218.88;4139609;28;20229;-60
2022/06/23 02:19:24;;;;;;;6.18;4.50;;;;;;;18.10;78.04;98212.50;4076352;29;20215;-60
2022/06/23 02:21:35;;;;;;;5.55;5.05;;;;;;;18.12;77.49;98223.28;4044057;29;20677;-60
2022/06/23 02:23:59;;;;;;;4.60;4.13;;;;;;;18.11;77.50;98227.16;4090850;28;20210;-60
2022/06/23 02:26:06;;;;;;;9.27;4.88;;;;;;;18.12;77.63;98235.16;4142060;28;20226;-60
2022/06/23 02:28:10;;;;;;;4.82;4.43;;;;;;;18.11;77.66;98222.44;4138931;28;20254;-60
2022/06/23 02:30:18;;;;;;;5.47;4.68;;;;;;;18.11;77.65;98229.94;4140334;28;20209;-60
2022/06/23 02:32:26;;;;;;;6.43;4.80;;;;;;;18.09;77.87;98229.41;4126775;28;20209;-60
2022/06/23 02:34:55;;;;;;;6.00;4.32;;;;;;;18.05;77.62;98223.66;4139788;28;20232;-60
2022/06/23 02:37:06;;;;;;;6.22;5.50;;;;;;;18.00;77.57;98231.25;4124935;28;20198;-60
2022/06/23 02:39:16;;;;;;;7.10;4.35;;;;;;;17.95;77.50;98223.84;4126504;28;20260;-60
2022/06/23 02:41:22;;;;;;;4.47;3.92;;;;;;;17.89;77.56;98229.78;4141398;28;20213;-60
2022/06/23 02:43:41;;;;;;;9.13;5.88;;;;;;;17.85;78.10;98228.75;4124342;28;20209;-60
2022/06/23 02:46:25;;;;;;;8.30;6.20;;;;;;;17.85;78.22;98228.75;4112177;28;20225;-60
2022/06/23 02:48:45;;;;;;;5.70;4.47;;;;;;;17.81;78.74;98230.47;4139880;28;20271;-58
2022/06/23 02:51:09;;;;;;;5.22;4.72;;;;;;;17.78;78.30;98228.31;4125381;28;20596;-59
2022/06/23 02:53:32;;;;;;;5.20;4.80;;;;;;;17.78;78.32;98233.88;4123880;28;20245;-60
2022/06/23 02:55:39;;;;;;;8.02;5.40;;;;;;;17.77;78.10;98232.19;4126060;28;20296;-60
2022/06/23 02:58:02;;;;;;;6.68;6.00;;;;;;;17.77;77.62;98232.19;4137428;28;20602;-60
2022/06/23 03:00:28;;;;;;;5.18;4.78;;;;;;;17.74;77.96;98232.81;4119377;28;20274;-62
2022/06/23 03:02:51;;;;;;;5.65;5.25;;;;;;;17.67;78.41;98221.31;4122466;28;20210;-60
2022/06/23 03:05:01;;;;;;;7.43;4.97;;;;;;;17.67;78.70;98224.06;4123597;28;20257;-60
2022/06/23 03:07:07;;;;;;;6.55;4.88;;;;;;;17.70;78.73;98227.06;4123357;28;20197;-61
2022/06/23 03:09:15;;;;;;;6.65;5.78;;;;;;;17.66;79.27;98230.75;4124814;28;20218;-60
2022/06/23 03:13:54;;;;;;;6.97;5.05;;;;;;;17.61;79.53;98233.59;4139058;28;20221;-60
2022/06/23 03:16:05;;;;;;;7.70;5.10;;;;;;;17.64;79.25;98230.22;4126265;28;20229;-60
2022/06/23 03:18:18;;;;;;;5.28;4.78;;;;;;;17.61;79.08;98225.28;4126457;28;20233;-60
2022/06/23 03:20:26;;;;;;;8.05;5.05;;;;;;;17.55;79.46;98234.78;4122373;28;20201;-60
2022/06/23 03:22:36;;;;;;;6.10;5.60;;;;;;;17.55;79.32;98229.25;4140369;28;20262;-60
2022/06/23 03:24:41;;;;;;;6.93;5.47;;;;;;;17.54;79.34;98233.97;4125706;28;20229;-60
2022/06/23 03:26:48;;;;;;;5.70;5.20;;;;;;;17.52;79.49;98219.59;4123272;28;20630;-60
2022/06/23 03:28:57;;;;;;;5.45;4.95;;;;;;;17.43;79.88;98226.97;4139484;28;20217;-60
2022/06/23 03:31:02;;;;;;;6.38;5.40;;;;;;;17.47;79.61;98219.72;4118867;28;20217;-60
2022/06/23 03:33:21;;;;;;;6.60;5.20;;;;;;;17.46;79.51;98225.53;4126899;28;20257;-60
2022/06/23 03:35:25;;;;;;;5.57;4.50;;;;;;;17.46;79.19;98231.88;4125764;28;20281;-60
2022/06/23 03:37:55;;;;;;;4.82;4.43;;;;;;;17.48;79.37;98237.97;4124822;28;20230;-60
2022/06/23 03:42:51;;;;;;;4.95;4.55;;;;;;;17.51;78.79;98240.09;4140150;28;20208;-60
2022/06/23 03:45:21;;;;;;;4.82;3.95;;;;;;;17.50;78.72;98243.16;4140219;28;20230;-60
2022/06/23 03:47:35;;;;;;;4.93;4.57;;;;;;;17.49;78.35;98253.44;4134245;28;20554;-60
2022/06/23 03:49:58;;;;;;;4.95;4.35;;;;;;;17.49;78.23;98249.81;4126468;28;20216;-60
2022/06/23 03:52:03;;;;;;;14.88;5.07;;;;;;;17.49;78.09;98247.06;4141645;28;20235;-60
2022/06/23 03:54:23;;;;;;;5.78;5.05;;;;;;;17.48;78.07;98242.66;4110804;28;20218;-60
2022/06/23 03:56:28;;;;;;;4.25;3.85;;;;;;;17.47;78.14;98249.31;4138708;28;20220;-60
2022/06/23 03:58:45;;;;;;;6.53;4.35;;;;;;;17.47;77.92;98249.31;4124933;28;20214;-60
2022/06/23 04:01:12;;;;;;;5.10;4.68;;;;;;;17.45;78.14;98251.56;4138802;28;20221;-60
2022/06/23 04:03:29;;;;;;;6.07;5.20;;;;;;;17.44;78.25;98252.69;4139981;28;20213;-60
2022/06/23 04:05:56;;;;;;;5.25;4.60;;;;;;;17.34;78.92;98252.81;4140895;28;20228;-60
2022/06/23 04:08:02;;;;;;;6.05;5.55;;;;;;;17.41;78.51;98258.81;4135152;28;20237;-60
2022/06/23 04:10:10;;;;;;;5.13;4.72;;;;;;;17.41;78.64;98256.03;4124200;28;20382;-60
2022/06/23 04:12:36;;;;;;;4.97;4.35;;;;;;;17.41;78.42;98261.59;4115359;28;20541;-61
2022/06/23 04:14:46;;;;;;;5.57;5.07;;;;;;;17.44;78.46;98258.22;4123036;28;20233;-60
2022/06/23 04:16:51;;;;;;;7.43;5.70;;;;;;;17.45;78.44;98262.63;4127914;28;20711;-60
2022/06/23 04:18:53;;;;;;;5.70;5.03;;;;;;;17.45;78.31;98262.63;4127926;28;20214;-60
2022/06/23 04:20:59;;;;;;;5.22;4.72;;;;;;;17.45;78.36;98257.91;4108521;28;20211;-60
2022/06/23 04:23:04;;;;;;;5.90;5.18;;;;;;;17.47;78.07;98260.38;4138228;28;20214;-60
2022/06/23 04:25:08;;;;;;;8.30;4.95;;;;;;;17.49;77.85;98252.59;4123399;28;20411;-60
2022/06/23 04:27:16;;;;;;;5.00;4.60;;;;;;;17.51;78.03;98255.91;4140077;28;20248;-60
2022/06/23 04:29:26;;;;;;;5.55;5.05;;;;;;;17.53;77.85;98253.66;4121892;28;20625;-60
2022/06/23 04:31:31;;;;;;;6.57;4.97;;;;;;;17.54;77.75;98258.06;4140299;28;20201;-60
2022/06/23 04:33:40;;;;;;;6.13;5.55;;;;;;;17.55;77.88;98254.16;4138132;28;20217;-60
2022/06/23 04:35:56;;;;;;;8.32;4.93;;;;;;;17.56;77.59;98259.41;4139299;28;20229;-60
2022/06/23 04:38:16;;;;;;;5.20;4.80;;;;;;;17.58;77.44;98259.09;4141254;28;20205;-60
2022/06/23 04:40:33;;;;;;;11.02;5.28;;;;;;;17.60;77.75;98265.16;4123975;28;20198;-60
2022/06/23 04:42:45;;;;;;;6.13;5.53;;;;;;;17.60;77.71;98265.16;4128968;28;20205;-62
2022/06/23 04:44:52;;;;;;;4.47;4.03;;;;;;;17.60;77.67;98265.16;4127479;28;20261;-60
2022/06/23 04:46:57;;;;;;;5.82;5.10;;;;;;;17.63;78.16;98264.53;4123983;28;20561;-60
2022/06/23 04:49:04;;;;;;;6.47;5.90;;;;;;;17.61;78.95;98266.78;4137681;28;20205;-60
2022/06/23 04:51:19;;;;;;;10.18;5.35;;;;;;;17.64;78.86;98271.75;4139729;28;20232;-60
2022/06/23 04:53:37;;;;;;;6.93;6.22;;;;;;;17.63;78.59;98270.06;4123495;28;20708;-60
2022/06/23 04:55:39;;;;;;;11.73;6.07;;;;;;;17.73;79.08;98275.47;4138634;28;20233;-60
2022/06/23 04:57:44;;;;;;;6.55;5.90;;;;;;;17.63;79.85;98265.38;4124625;28;20253;-60
2022/06/23 04:59:52;;;;;;;7.45;5.93;;;;;;;17.53;80.73;98264.72;4137308;28;20210;-60
2022/06/23 05:01:54;;;;;;;8.20;6.00;;;;;;;17.63;80.49;98259.00;4119529;28;20209;-60
2022/06/23 05:03:57;;;;;;;9.75;6.13;;;;;;;17.60;80.50;98262.38;4106893;28;20211;-60
2022/06/23 05:06:18;;;;;;;7.60;5.85;;;;;;;17.68;80.80;98261.69;4138724;28;20226;-60
2022/06/23 05:08:25;;;;;;;7.47;6.78;;;;;;;17.70;81.16;98256.66;4137702;28;20241;-60
2022/06/23 05:10:31;;;;;;;11.30;6.68;;;;;;;17.67;81.10;98254.53;4139015;28;20216;-60
2022/06/23 05:12:38;;;;;;;7.60;6.68;;;;;;;17.76;80.72;98258.22;4127587;28;20206;-62
2022/06/23 05:14:58;;;;;;;4.88;4.47;;;;;;;17.83;80.33;98264.19;4122986;28;20238;-61
2022/06/23 05:17:15;;;;;;;6.88;6.22;;;;;;;18.03;79.57;98269.38;4125472;28;20270;-60
2022/06/23 05:19:23;;;;;;;10.73;8.15;;;;;;;17.97;81.28;98265.06;4139506;28;20221;-61
2022/06/23 05:21:28;;;;;;;7.78;6.13;;;;;;;17.99;81.08;98280.25;4139774;28;20197;-60
2022/06/23 05:23:39;;;;;;;8.82;7.15;;;;;;;18.05;81.08;98269.94;4139974;28;20650;-60
2022/06/23 05:25:46;;;;;;;8.48;7.63;;;;;;;18.18;80.65;98271.91;4126375;28;20722;-60
2022/06/23 05:27:49;;;;;;;10.40;6.70;;;;;;;18.25;80.37;98269.56;4135812;28;20212;-60
2022/06/23 05:29:55;;;;;;;8.70;6.85;;;;;;;18.38;79.87;98266.03;4126161;28;20213;-60
2022/06/23 05:32:14;;;;;;;8.00;7.18;;;;;;;18.48;79.77;98265.81;4125733;28;20205;-60
2022/06/23 05:34:26;;;;;;;15.68;6.15;;;;;;;18.62;79.08;98269.41;4138220;28;20295;-60
2022/06/23 05:36:32;;;;;;;7.70;6.00;;;;;;;18.76;79.27;98278.53;4139465;28;20221;-60
2022/06/23 05:38:38;;;;;;;13.40;7.38;;;;;;;19.05;76.98;98281.81;4120571;28;20236;-61
2022/06/23 05:40:49;;;;;;;8.35;6.78;;;;;;;18.89;78.87;98288.81;4121267;28;20743;-60
2022/06/23 05:42:54;;;;;;;9.63;6.75;;;;;;;18.95;79.52;98285.63;4126535;28;20856;-60
2022/06/23 05:45:05;;;;;;;8.60;6.10;;;;;;;19.01;79.36;98291.88;4126487;28;20222;-60
2022/06/23 05:47:09;;;;;;;8.27;5.80;;;;;;;19.19;79.84;98294.53;4142883;28;20552;-61
2022/06/23 05:49:17;;;;;;;11.82;6.63;;;;;;;19.27;78.75;98284.69;4124372;28;20207;-60
2022/06/23 05:51:26;;;;;;;9.45;5.97;;;;;;;19.29;78.77;98293.50;4141962;28;20209;-61
2022/06/23 05:53:33;;;;;;;13.10;5.78;;;;;;;19.42;78.73;98298.22;4126807;28;20202;-60
2022/06/23 05:55:52;;;;;;;10.02;5.82;;;;;;;19.44;77.97;98302.31;4127873;28;20257;-60
2022/06/23 05:58:05;;;;;;;7.25;5.65;;;;;;;19.53;77.84;98294.91;4126385;28;20256;-60
2022/06/23 06:00:14;;;;;;;9.50;5.03;;;;;;;19.59;77.88;98295.59;4143157;28;20655;-60
2022/06/23 06:02:40;;;;;;;8.27;6.25;;;;;;;19.78;77.54;98302.63;4122762;28;20657;-61
2022/06/23 06:04:51;;;;;;;6.57;5.22;;;;;;;20.04;77.16;98311.16;4105537;28;20234;-60
2022/06/23 06:06:53;;;;;;;9.48;5.55;;;;;;;20.28;77.08;98309.72;4123959;28;20869;-60
2022/06/23 06:11:18;;;;;;;15.00;4.50;;;;;;;20.69;75.39;98306.66;4137459;28;20213;-61
2022/06/23 06:13:26;;;;;;;10.18;4.95;;;;;;;20.86;75.08;98298.41;4126763;28;20210;-61
2022/06/23 06:15:36;;;;;;;10.45;5.18;;;;;;;20.78;74.89;98301.97;4119776;28;20229;-61
2022/06/23 06:17:44;;;;;;;5.88;4.47;;;;;;;20.86;75.54;98298.41;4138272;28;20232;-60
2022/06/23 06:19:47;;;;;;;7.20;4.60;;;;;;;21.05;74.09;98304.56;4129331;28;20202;-61
2022/06/23 06:21:52;;;;;;;8.93;4.90;;;;;;;21.26;73.15;98300.03;4126179;28;20213;-60
2022/06/23 06:24:05;;;;;;;5.90;4.63;;;;;;;21.32;73.71;98304.31;4124866;28;20217;-61
2022/06/23 06:26:10;;;;;;;6.05;4.95;;;;;;;21.46;73.10;98304.97;4139860;28;20221;-61
2022/06/23 06:28:15;;;;;;;5.68;5.07;;;;;;;21.59;72.63;98304.00;4126873;28;20210;-61
2022/06/23 06:30:20;;;;;;;5.30;4.35;;;;;;;21.71;72.52;98295.88;4127848;28;20205;-61
2022/06/23 06:32:21;;;;;;;7.50;5.00;;;;;;;21.84;72.45;98297.66;4133297;28;20213;-62
2022/06/23 06:34:30;;;;;;;6.50;4.90;;;;;;;21.69;72.51;98298.13;4131049;28;20295;-61
2022/06/23 06:36:43;;;;;;;7.35;5.20;;;;;;;21.67;71.77;98300.44;4138973;28;20678;-61
2022/06/23 06:38:45;;;;;;;8.43;5.60;;;;;;;21.80;71.85;98294.72;4138521;28;20265;-61
2022/06/23 06:40:48;;;;;;;7.82;4.82;;;;;;;21.59;72.26;98304.00;4112831;28;20260;-60
2022/06/23 06:42:56;;;;;;;10.10;4.97;;;;;;;21.81;72.42;98307.50;4139377;28;20213;-61
2022/06/23 06:45:00;;;;;;;15.00;5.20;;;;;;;22.02;71.26;98296.50;4118629;28;20267;-61
2022/06/23 06:47:02;;;;;;;5.50;4.20;;;;;;;22.28;71.54;98300.06;4125413;28;20215;-61
2022/06/23 06:49:04;;;;;;;5.38;3.88;;;;;;;22.40;70.11;98297.41;4121776;28;20202;-61
2022/06/23 06:51:12;;;;;;;9.30;5.03;;;;;;;22.26;69.71;98291.22;4135754;28;20218;-61
2022/06/23 06:53:19;;;;;;;8.45;4.55;;;;;;;22.32;70.39;98292.69;4138417;28;20721;-60
2022/06/23 06:55:33;;;;;;;10.13;4.63;;;;;;;22.53;69.64;98296.44;4115680;28;20225;-61
2022/06/23 06:57:39;;;;;;;9.40;4.00;;;;;;;22.53;69.13;98286.09;4122543;28;20222;-60
2022/06/23 06:59:51;;;;;;;8.32;4.07;;;;;;;22.66;69.31;98285.09;4121182;28;20202;-60
2022/06/23 07:02:04;;;;;;;9.35;5.75;;;;;;;22.83;68.30;98290.56;4137222;28;20211;-61
2022/06/23 07:04:12;;;;;;;5.80;3.70;;;;;;;23.11;68.19;98290.94;4120518;28;20225;-60
2022/06/23 07:06:40;;;;;;;6.03;3.92;;;;;;;22.97;67.93;98291.16;4124482;28;20205;-61
2022/06/23 07:08:54;;;;;;;10.55;4.07;;;;;;;23.19;68.00;98292.91;4118746;28;20268;-60
2022/06/23 07:11:13;;;;;;;11.73;3.90;;;;;;;23.40;67.42;98288.16;4133722;28;20286;-61
2022/06/23 07:13:27;;;;;;;6.43;4.22;;;;;;;23.62;66.82;98287.84;4119505;28;20195;-61
2022/06/23 07:15:38;;;;;;;8.68;3.47;;;;;;;23.78;66.00;98290.50;4141137;28;20298;-61
2022/06/23 07:17:52;;;;;;;8.27;4.20;;;;;;;23.78;66.24;98290.50;4122571;28;20221;-61
2022/06/23 07:20:02;;;;;;;7.47;3.60;;;;;;;24.07;65.76;98290.44;4138169;28;20251;-61
2022/06/23 07:22:09;;;;;;;12.40;4.65;;;;;;;24.36;65.27;98295.94;4132825;28;20215;-60
2022/06/23 07:24:19;;;;;;;8.30;3.25;;;;;;;24.42;64.56;98300.16;4123165;28;20703;-61
2022/06/23 07:26:38;;;;;;;3.67;3.38;;;;;;;24.59;64.11;98297.19;4121867;28;20193;-61
2022/06/23 07:28:49;;;;;;;12.52;3.83;;;;;;;24.99;63.32;98292.59;4125773;28;20655;-61
2022/06/23 07:30:58;;;;;;;6.60;3.28;;;;;;;25.14;64.49;98293.88;4107885;28;20202;-61
2022/06/23 07:33:10;;;;;;;9.07;4.05;;;;;;;24.54;62.61;98302.16;4121190;28;20288;-61
2022/06/23 07:35:32;;;;;;;7.50;4.50;;;;;;;24.81;62.74;98298.75;4105723;28;20225;-61
2022/06/23 07:37:42;;;;;;;9.75;4.72;;;;;;;25.16;62.69;98297.97;4123358;28;20304;-60
2022/06/23 07:39:45;;;;;;;5.40;3.47;;;;;;;25.39;63.16;98299.16;4122280;28;20845;-60
2022/06/23 07:42:02;;;;;;;6.85;3.38;;;;;;;25.45;61.01;98292.13;4137266;28;20232;-60
2022/06/23 07:44:09;;;;;;;5.90;3.17;;;;;;;25.53;60.89;98296.78;4139533;28;20197;-60
2022/06/23 07:46:12;;;;;;;5.45;3.13;;;;;;;25.79;60.17;98299.22;4118001;28;20714;-60
2022/06/23 07:48:14;;;;;;;6.95;2.72;;;;;;;25.90;60.13;98297.56;4124141;28;20218;-60
2022/06/23 07:50:20;;;;;;;6.90;3.08;;;;;;;26.03;59.28;98297.19;4139327;28;20202;-60
2022/06/23 07:52:25;;;;;;;5.63;3.28;;;;;;;25.76;58.37;98283.91;4138759;28;20292;-61
2022/06/23 07:54:27;;;;;;;7.47;2.13;;;;;;;25.77;58.04;98293.97;4118584;28;20272;-60
2022/06/23 07:56:31;;;;;;;8.25;3.22;;;;;;;25.39;59.78;98289.94;4119876;28;20820;-60
2022/06/23 07:58:36;;;;;;;3.65;2.67;;;;;;;25.57;59.35;98297.72;4121878;28;20217;-61
2022/06/23 08:00:41;;;;;;;5.55;3.08;;;;;;;25.16;59.84;98297.97;4137967;28;20212;-60
2022/06/23 08:03:00;;;;;;;6.22;2.60;;;;;;;24.60;61.18;98306.41;4108301;28;20249;-60
2022/06/23 08:05:13;;;;;;;7.10;3.30;;;;;;;24.17;62.48;98292.84;4134525;28;20315;-60
2022/06/23 08:07:16;;;;;;;5.22;2.75;;;;;;;23.98;63.08;98285.28;4115193;28;20205;-60
2022/06/23 08:09:26;;;;;;;6.25;3.80;;;;;;;23.62;64.06;98282.25;4107077;28;20203;-60
2022/06/23 08:14:25;;;;;;;4.88;2.35;;;;;;;23.73;64.26;98275.09;4137615;28;20202;-60
2022/06/23 08:19:04;;;;;;;7.82;3.08;;;;;;;23.73;65.02;98272.31;4139678;28;20201;-60
2022/06/23 08:21:14;;;;;;;4.35;2.90;;;;;;;24.00;65.04;98270.59;4126675;28;20256;-60
2022/06/23 08:23:17;;;;;;;4.88;3.00;;;;;;;24.58;63.71;98270.38;4128341;28;20205;-60
2022/06/23 08:25:19;;;;;;;8.98;3.53;;;;;;;25.04;63.11;98272.75;4140159;28;20777;-60
2022/06/23 08:27:28;;;;;;;6.18;2.60;;;;;;;25.42;62.22;98272.41;4118917;28;20210;-60
2022/06/23 08:29:53;;;;;;;6.78;3.40;;;;;;;25.67;59.73;98269.19;4126312;28;20224;-60
2022/06/23 08:31:55;;;;;;;10.38;2.95;;;;;;;26.11;60.35;98268.16;4140042;28;20557;-60
2022/06/23 08:34:02;;;;;;;4.03;1.95;;;;;;;25.76;56.86;98267.09;4123746;28;20212;-60
2022/06/23 08:36:11;;;;;;;6.18;2.42;;;;;;;25.55;57.91;98255.22;4124931;28;20261;-60
2022/06/23 08:38:21;;;;;;;4.68;2.38;;;;;;;25.68;57.95;98265.25;4125066;28;20264;-60
2022/06/23 08:40:29;;;;;;;5.95;3.08;;;;;;;25.78;57.26;98252.72;4129038;28;20213;-60
2022/06/23 08:42:49;;;;;;;6.38;2.50;;;;;;;25.73;56.16;98253.75;4127244;28;20209;-60
2022/06/23 08:45:01;;;;;;;5.63;1.98;;;;;;;25.63;56.55;98251.47;4137846;28;20251;-60
2022/06/23 08:47:24;;;;;;;5.80;2.53;;;;;;;25.65;58.04;98248.31;4128617;28;20213;-60
2022/06/23 08:49:28;;;;;;;4.80;2.35;;;;;;;25.93;56.19;98244.38;4145338;28;20317;-60
2022/06/23 08:51:32;;;;;;;5.13;2.40;;;;;;;26.31;55.96;98250.28;4124774;28;20259;-60
2022/06/23 08:53:43;;;;;;;8.10;2.63;;;;;;;26.53;56.60;98246.91;4139548;28;20833;-60
2022/06/23 08:55:58;;;;;;;5.88;2.95;;;;;;;26.40;55.43;98242.50;4122763;28;20660;-60
2022/06/23 08:58:08;;;;;;;6.65;3.35;;;;;;;26.48;56.68;98237.91;4139569;28;20232;-60
2022/06/23 09:00:16;;;;;;;3.53;1.90;;;;;;;26.41;56.43;98243.34;4123585;28;20296;-60
2022/06/23 09:02:19;;;;;;;7.88;2.85;;;;;;;26.20;55.78;98242.75;4126198;28;20222;-60
2022/06/23 09:05:10;;;;;;;9.07;3.08;;;;;;;26.90;55.85;98236.25;4129745;28;20225;-60
2022/06/23 09:07:25;;;;;;;8.00;3.38;;;;;;;26.35;54.98;98234.38;4126333;28;20217;-60
2022/06/23 09:09:38;;;;;;;17.63;3.42;;;;;;;26.15;55.35;98232.63;4108346;28;20330;-60
2022/06/23 09:11:53;;;;;;;10.10;3.05;;;;;;;26.59;56.08;98227.81;4137437;28;20209;-60
2022/06/23 09:14:27;;;;;;;3.35;1.80;;;;;;;27.26;54.53;98236.78;4135955;28;20208;-60
2022/06/23 09:16:32;;;;;;;4.18;2.35;;;;;;;26.58;54.15;98229.00;4114476;28;20231;-60
2022/06/23 09:18:52;;;;;;;7.63;2.67;;;;;;;26.34;56.03;98238.38;4123174;28;20630;-60
2022/06/23 09:21:03;;;;;;;3.65;2.67;;;;;;;26.26;55.99;98230.91;4136015;28;20231;-60
2022/06/23 09:23:43;;;;;;;6.32;3.13;;;;;;;26.18;57.19;98226.28;4138111;28;20244;-60
2022/06/23 09:25:44;;;;;;;6.13;2.65;;;;;;;25.86;56.63;98221.72;4119291;28;20225;-60
2022/06/23 09:28:14;;;;;;;11.13;3.03;;;;;;;25.99;57.15;98226.13;4121237;28;20229;-60
2022/06/23 09:30:20;;;;;;;4.35;2.45;;;;;;;25.95;57.39;98222.41;4137351;28;20275;-60
2022/06/23 09:32:22;;;;;;;5.70;2.65;;;;;;;26.35;55.61;98222.31;4134694;28;20213;-60
2022/06/23 09:34:57;;;;;;;6.22;2.40;;;;;;;26.91;54.37;98210.59;4121986;28;20586;-60
2022/06/23 09:37:35;;;;;;;4.53;2.28;;;;;;;27.67;55.39;98215.63;4114793;28;20992;-60
2022/06/23 09:39:54;;;;;;;7.50;2.55;;;;;;;27.74;52.95;98222.25;4133077;28;20220;-60
2022/06/23 09:42:18;;;;;;;8.05;2.78;;;;;;;27.33;53.26;98220.06;4136590;28;20299;-60
2022/06/23 09:44:38;;;;;;;4.18;3.05;;;;;;;27.04;53.56;98206.50;4122899;28;20206;-59
2022/06/23 09:46:46;;;;;;;6.05;3.28;;;;;;;27.43;53.30;98213.91;4123339;28;20221;-60
2022/06/23 09:49:11;;;;;;;5.20;2.15;;;;;;;27.89;52.89;98210.13;4134790;28;20258;-60
2022/06/23 09:51:21;;;;;;;3.25;2.05;;;;;;;26.83;53.73;98214.41;4116765;28;20198;-59
2022/06/23 09:53:42;;;;;;;5.35;2.20;;;;;;;27.05;53.35;98212.97;4119660;28;20438;-59
2022/06/23 09:56:01;;;;;;;8.30;3.03;;;;;;;27.20;53.16;98210.13;4135626;28;20232;-60
2022/06/23 09:58:06;;;;;;;4.63;2.05;;;;;;;27.70;52.43;98210.09;4123951;28;20220;-59
2022/06/23 10:00:11;;;;;;;6.68;2.63;;;;;;;27.44;52.91;98209.06;4134179;28;20259;-60
2022/06/23 10:02:40;;;;;;;4.13;1.90;;;;;;;28.08;52.22;98212.09;4134915;28;20574;-59
2022/06/23 10:04:51;;;;;;;5.82;2.47;;;;;;;27.98;51.39;98202.25;4136079;28;20704;-59
2022/06/23 10:07:30;;;;;;;3.30;1.67;;;;;;;28.28;51.57;98200.47;4135333;28;20399;-59
2022/06/23 10:09:54;;;;;;;6.22;2.10;;;;;;;27.77;51.35;98196.19;4135192;28;20213;-59
2022/06/23 10:12:07;;;;;;;5.15;1.83;;;;;;;27.57;51.95;98200.16;4123571;28;20236;-59
2022/06/23 10:14:21;;;;;;;5.90;2.00;;;;;;;27.80;51.94;98206.69;4126258;28;20799;-60
2022/06/23 10:17:19;;;;;;;4.55;2.33;;;;;;;27.94;51.62;98204.19;4135587;28;20209;-59
2022/06/23 10:19:47;;;;;;;8.73;2.83;;;;;;;28.03;51.22;98204.78;4077358;29;20253;-59
2022/06/23 10:22:01;;;;;;;7.05;2.20;;;;;;;27.51;51.40;98209.25;4076595;29;20235;-59
2022/06/23 10:24:21;;;;;;;5.53;2.78;;;;;;;27.32;52.56;98201.59;4089621;28;20220;-59
2022/06/23 10:26:43;;;;;;;8.45;2.10;;;;;;;27.25;52.31;98193.00;4124728;28;20589;-60
2022/06/23 10:28:47;;;;;;;6.85;2.28;;;;;;;27.97;52.64;98194.19;4122186;28;20614;-60
2022/06/23 10:31:04;;;;;;;5.63;2.15;;;;;;;28.02;52.14;98182.63;4138906;28;20586;-59
2022/06/23 10:33:31;;;;;;;4.80;1.92;;;;;;;28.10;50.87;98190.84;4124284;28;20639;-59
2022/06/23 10:36:08;;;;;;;2.50;1.30;;;;;;;28.20;49.16;98181.78;4123787;28;20233;-59